sensor_id;sensor_type;location;lat;lon;timestamp;temperature;humidity
34726;DHT22;20951;50.818;4.344;2024-02-04T00:02:00;10.30;99.90
34726;DHT22;20951;50.818;4.344;2024-02-04T00:04:25;10.30;99.90
34726;DHT22;20951;50.818;4.344;2024-02-04T00:06:58;10.30;99.90
34726;DHT22;20951;50.818;4.344;2024-02-04T00:09:24;10.40;99.90
34726;DHT22;20951;50.818;4.344;2024-02-04T00:11:55;10.40;99.90
34726;DHT22;20951;50.818;4.344;2024-02-04T00:14:31;10.50;99.90
34726;DHT22;20951;50.818;4.344;2024-02-04T00:16:57;10.50;99.90
34726;DHT22;20951;50.818;4.344;2024-02-04T00:19:25;10.50;99.90
34726;DHT22;20951;50.818;4.344;2024-02-04T00:21:52;10.30;99.90
34726;DHT22;20951;50.818;4.344;2024-02-04T00:24:18;10.40;99.90
34726;DHT22;20951;50.818;4.344;2024-02-04T00:26:44;10.40;99.90
34726;DHT22;20951;50.818;4.344;2024-02-04T00:29:10;10.40;99.90
34726;DHT22;20951;50.818;4.344;2024-02-04T00:31:36;10.40;99.90
34726;DHT22;20951;50.818;4.344;2024-02-04T00:34:03;10.40;99.90
34726;DHT22;20951;50.818;4.344;2024-02-04T00:36:31;10.50;99.90
34726;DHT22;20951;50.818;4.344;2024-02-04T00:38:57;10.50;99.90
34726;DHT22;20951;50.818;4.344;2024-02-04T00:41:25;10.50;99.90
34726;DHT22;20951;50.818;4.344;2024-02-04T00:43:50;10.50;99.90
34726;DHT22;20951;50.818;4.344;2024-02-04T00:46:18;10.50;99.90
34726;DHT22;20951;50.818;4.344;2024-02-04T00:48:46;10.50;99.90
34726;DHT22;20951;50.818;4.344;2024-02-04T00:51:12;10.60;99.90
34726;DHT22;20951;50.818;4.344;2024-02-04T00:53:48;10.60;99.90
34726;DHT22;20951;50.818;4.344;2024-02-04T00:56:14;10.50;99.90
34726;DHT22;20951;50.818;4.344;2024-02-04T00:58:40;10.60;99.90
34726;DHT22;20951;50.818;4.344;2024-02-04T01:01:06;10.50;99.90
34726;DHT22;20951;50.818;4.344;2024-02-04T01:03:42;10.60;99.90
34726;DHT22;20951;50.818;4.344;2024-02-04T01:06:18;10.40;99.90
34726;DHT22;20951;50.818;4.344;2024-02-04T01:08:46;10.30;99.90
34726;DHT22;20951;50.818;4.344;2024-02-04T01:11:15;10.40;99.90
34726;DHT22;20951;50.818;4.344;2024-02-04T01:13:41;10.50;99.90
34726;DHT22;20951;50.818;4.344;2024-02-04T01:16:07;10.40;99.90
34726;DHT22;20951;50.818;4.344;2024-02-04T01:18:33;10.50;99.90
34726;DHT22;20951;50.818;4.344;2024-02-04T01:20:59;10.50;99.90
34726;DHT22;20951;50.818;4.344;2024-02-04T01:23:33;10.60;99.90
34726;DHT22;20951;50.818;4.344;2024-02-04T01:25:59;10.60;99.90
34726;DHT22;20951;50.818;4.344;2024-02-04T01:28:28;10.60;99.90
34726;DHT22;20951;50.818;4.344;2024-02-04T01:30:54;10.40;99.90
34726;DHT22;20951;50.818;4.344;2024-02-04T01:33:22;10.50;99.90
34726;DHT22;20951;50.818;4.344;2024-02-04T01:35:48;10.50;99.90
34726;DHT22;20951;50.818;4.344;2024-02-04T01:38:17;10.50;99.90
34726;DHT22;20951;50.818;4.344;2024-02-04T01:40:43;10.60;99.90
34726;DHT22;20951;50.818;4.344;2024-02-04T01:43:18;10.60;99.90
34726;DHT22;20951;50.818;4.344;2024-02-04T01:45:43;10.60;99.90
34726;DHT22;20951;50.818;4.344;2024-02-04T01:48:12;10.60;99.90
34726;DHT22;20951;50.818;4.344;2024-02-04T01:50:42;10.50;99.90
34726;DHT22;20951;50.818;4.344;2024-02-04T01:53:09;10.50;99.90
34726;DHT22;20951;50.818;4.344;2024-02-04T01:55:43;10.40;99.90
34726;DHT22;20951;50.818;4.344;2024-02-04T01:58:10;10.40;99.90
34726;DHT22;20951;50.818;4.344;2024-02-04T02:00:36;10.50;99.90
34726;DHT22;20951;50.818;4.344;2024-02-04T02:03:05;10.40;99.90
34726;DHT22;20951;50.818;4.344;2024-02-04T02:05:42;10.40;99.90
34726;DHT22;20951;50.818;4.344;2024-02-04T02:08:08;10.40;99.90
34726;DHT22;20951;50.818;4.344;2024-02-04T02:10:36;10.50;99.90
34726;DHT22;20951;50.818;4.344;2024-02-04T02:13:14;10.50;99.90
34726;DHT22;20951;50.818;4.344;2024-02-04T02:15:49;10.50;99.90
34726;DHT22;20951;50.818;4.344;2024-02-04T02:18:34;10.60;99.90
34726;DHT22;20951;50.818;4.344;2024-02-04T02:26:47;10.70;99.90
34726;DHT22;20951;50.818;4.344;2024-02-04T02:29:13;10.60;99.90
34726;DHT22;20951;50.818;4.344;2024-02-04T02:31:43;10.70;99.90
34726;DHT22;20951;50.818;4.344;2024-02-04T02:34:09;10.60;99.90
34726;DHT22;20951;50.818;4.344;2024-02-04T02:37:29;10.70;99.90
34726;DHT22;20951;50.818;4.344;2024-02-04T02:42:34;10.60;99.90
34726;DHT22;20951;50.818;4.344;2024-02-04T02:45:04;10.60;99.90
34726;DHT22;20951;50.818;4.344;2024-02-04T02:47:32;10.60;99.90
34726;DHT22;20951;50.818;4.344;2024-02-04T02:50:00;10.60;99.90
34726;DHT22;20951;50.818;4.344;2024-02-04T02:52:26;10.60;99.90
34726;DHT22;20951;50.818;4.344;2024-02-04T02:54:52;10.60;99.90
34726;DHT22;20951;50.818;4.344;2024-02-04T02:57:19;10.60;99.90
34726;DHT22;20951;50.818;4.344;2024-02-04T02:59:47;10.70;99.90
34726;DHT22;20951;50.818;4.344;2024-02-04T03:02:13;10.60;99.90
34726;DHT22;20951;50.818;4.344;2024-02-04T03:04:39;10.70;99.90
34726;DHT22;20951;50.818;4.344;2024-02-04T03:07:07;10.70;99.90
34726;DHT22;20951;50.818;4.344;2024-02-04T03:09:34;10.70;99.90
34726;DHT22;20951;50.818;4.344;2024-02-04T03:12:00;10.60;99.90
34726;DHT22;20951;50.818;4.344;2024-02-04T03:14:28;10.60;99.90
34726;DHT22;20951;50.818;4.344;2024-02-04T03:16:54;10.60;99.90
34726;DHT22;20951;50.818;4.344;2024-02-04T03:19:22;10.60;99.90
34726;DHT22;20951;50.818;4.344;2024-02-04T03:21:51;10.70;99.90
34726;DHT22;20951;50.818;4.344;2024-02-04T03:24:16;10.80;99.90
34726;DHT22;20951;50.818;4.344;2024-02-04T03:26:42;10.70;99.90
34726;DHT22;20951;50.818;4.344;2024-02-04T03:29:08;10.80;99.90
34726;DHT22;20951;50.818;4.344;2024-02-04T03:31:34;10.70;99.90
34726;DHT22;20951;50.818;4.344;2024-02-04T03:34:07;10.70;99.90
34726;DHT22;20951;50.818;4.344;2024-02-04T03:36:32;10.60;99.90
34726;DHT22;20951;50.818;4.344;2024-02-04T03:39:01;10.70;99.90
34726;DHT22;20951;50.818;4.344;2024-02-04T03:41:27;10.60;99.90
34726;DHT22;20951;50.818;4.344;2024-02-04T03:43:53;10.70;99.90
34726;DHT22;20951;50.818;4.344;2024-02-04T03:46:20;10.70;99.90
34726;DHT22;20951;50.818;4.344;2024-02-04T03:48:46;10.60;99.90
34726;DHT22;20951;50.818;4.344;2024-02-04T03:51:16;10.60;99.90
34726;DHT22;20951;50.818;4.344;2024-02-04T03:53:51;10.60;99.90
34726;DHT22;20951;50.818;4.344;2024-02-04T03:56:17;10.60;99.90
34726;DHT22;20951;50.818;4.344;2024-02-04T03:58:44;10.60;99.90
34726;DHT22;20951;50.818;4.344;2024-02-04T04:01:18;10.60;99.90
34726;DHT22;20951;50.818;4.344;2024-02-04T04:03:44;10.60;99.90
34726;DHT22;20951;50.818;4.344;2024-02-04T04:06:10;10.70;99.90
34726;DHT22;20951;50.818;4.344;2024-02-04T04:08:37;10.60;99.90
34726;DHT22;20951;50.818;4.344;2024-02-04T04:11:03;10.70;99.90
34726;DHT22;20951;50.818;4.344;2024-02-04T04:13:29;10.60;99.90
34726;DHT22;20951;50.818;4.344;2024-02-04T04:15:55;10.60;99.90
34726;DHT22;20951;50.818;4.344;2024-02-04T04:18:21;10.60;99.90
34726;DHT22;20951;50.818;4.344;2024-02-04T04:20:47;10.60;99.90
34726;DHT22;20951;50.818;4.344;2024-02-04T04:23:13;10.60;99.90
34726;DHT22;20951;50.818;4.344;2024-02-04T04:25:39;10.60;99.90
34726;DHT22;20951;50.818;4.344;2024-02-04T04:28:04;10.50;99.90
34726;DHT22;20951;50.818;4.344;2024-02-04T04:30:30;10.50;99.90
34726;DHT22;20951;50.818;4.344;2024-02-04T04:32:57;10.40;99.90
34726;DHT22;20951;50.818;4.344;2024-02-04T04:35:24;10.50;99.90
34726;DHT22;20951;50.818;4.344;2024-02-04T04:37:54;10.60;99.90
34726;DHT22;20951;50.818;4.344;2024-02-04T04:40:19;10.70;99.90
34726;DHT22;20951;50.818;4.344;2024-02-04T04:42:45;10.80;99.90
34726;DHT22;20951;50.818;4.344;2024-02-04T04:45:11;10.60;99.90
34726;DHT22;20951;50.818;4.344;2024-02-04T04:47:43;10.60;99.90
34726;DHT22;20951;50.818;4.344;2024-02-04T04:50:09;10.60;99.90
34726;DHT22;20951;50.818;4.344;2024-02-04T04:52:35;10.60;99.90
34726;DHT22;20951;50.818;4.344;2024-02-04T04:55:01;10.50;99.90
34726;DHT22;20951;50.818;4.344;2024-02-04T04:57:26;10.50;99.90
34726;DHT22;20951;50.818;4.344;2024-02-04T04:59:52;10.50;99.90
34726;DHT22;20951;50.818;4.344;2024-02-04T05:02:27;10.50;99.90
34726;DHT22;20951;50.818;4.344;2024-02-04T05:04:53;10.40;99.90
34726;DHT22;20951;50.818;4.344;2024-02-04T05:07:19;10.40;99.90
34726;DHT22;20951;50.818;4.344;2024-02-04T05:09:44;10.40;99.90
34726;DHT22;20951;50.818;4.344;2024-02-04T05:12:19;10.50;99.90
34726;DHT22;20951;50.818;4.344;2024-02-04T05:14:54;10.50;99.90
34726;DHT22;20951;50.818;4.344;2024-02-04T05:17:20;10.50;99.90
34726;DHT22;20951;50.818;4.344;2024-02-04T05:19:49;10.60;99.90
34726;DHT22;20951;50.818;4.344;2024-02-04T05:22:15;10.50;99.90
34726;DHT22;20951;50.818;4.344;2024-02-04T05:24:41;10.50;99.90
34726;DHT22;20951;50.818;4.344;2024-02-04T05:27:06;10.40;99.90
34726;DHT22;20951;50.818;4.344;2024-02-04T05:29:32;10.40;99.90
34726;DHT22;20951;50.818;4.344;2024-02-04T05:31:58;10.40;99.90
34726;DHT22;20951;50.818;4.344;2024-02-04T05:34:26;10.40;99.90
34726;DHT22;20951;50.818;4.344;2024-02-04T05:36:52;10.50;99.90
34726;DHT22;20951;50.818;4.344;2024-02-04T05:39:18;10.50;99.90
34726;DHT22;20951;50.818;4.344;2024-02-04T05:41:44;10.50;99.90
34726;DHT22;20951;50.818;4.344;2024-02-04T05:44:10;10.50;99.90
34726;DHT22;20951;50.818;4.344;2024-02-04T05:46:36;10.50;99.90
34726;DHT22;20951;50.818;4.344;2024-02-04T05:49:11;10.40;99.90
34726;DHT22;20951;50.818;4.344;2024-02-04T05:51:40;10.50;99.90
34726;DHT22;20951;50.818;4.344;2024-02-04T05:54:07;10.60;99.90
34726;DHT22;20951;50.818;4.344;2024-02-04T05:56:34;10.60;99.90
34726;DHT22;20951;50.818;4.344;2024-02-04T05:59:03;10.60;99.90
34726;DHT22;20951;50.818;4.344;2024-02-04T06:01:31;10.60;99.90
34726;DHT22;20951;50.818;4.344;2024-02-04T06:03:58;10.50;99.90
34726;DHT22;20951;50.818;4.344;2024-02-04T06:06:24;10.50;99.90
34726;DHT22;20951;50.818;4.344;2024-02-04T06:08:51;10.70;99.90
34726;DHT22;20951;50.818;4.344;2024-02-04T06:11:17;10.60;99.90
34726;DHT22;20951;50.818;4.344;2024-02-04T06:13:44;10.60;99.90
34726;DHT22;20951;50.818;4.344;2024-02-04T06:16:10;10.60;99.90
34726;DHT22;20951;50.818;4.344;2024-02-04T06:18:39;10.60;99.90
34726;DHT22;20951;50.818;4.344;2024-02-04T06:21:06;10.60;99.90
34726;DHT22;20951;50.818;4.344;2024-02-04T06:23:31;10.60;99.90
34726;DHT22;20951;50.818;4.344;2024-02-04T06:25:57;10.60;99.90
34726;DHT22;20951;50.818;4.344;2024-02-04T06:28:23;10.50;99.90
34726;DHT22;20951;50.818;4.344;2024-02-04T06:30:52;10.60;99.90
34726;DHT22;20951;50.818;4.344;2024-02-04T06:33:18;10.60;99.90
34726;DHT22;20951;50.818;4.344;2024-02-04T06:35:44;10.50;99.90
34726;DHT22;20951;50.818;4.344;2024-02-04T06:38:13;10.50;99.90
34726;DHT22;20951;50.818;4.344;2024-02-04T06:40:39;10.50;99.90
34726;DHT22;20951;50.818;4.344;2024-02-04T06:43:04;10.50;99.90
34726;DHT22;20951;50.818;4.344;2024-02-04T06:45:30;10.50;99.90
34726;DHT22;20951;50.818;4.344;2024-02-04T06:47:59;10.50;99.90
34726;DHT22;20951;50.818;4.344;2024-02-04T06:50:25;10.50;99.90
34726;DHT22;20951;50.818;4.344;2024-02-04T06:52:51;10.50;99.90
34726;DHT22;20951;50.818;4.344;2024-02-04T06:55:17;10.60;99.90
34726;DHT22;20951;50.818;4.344;2024-02-04T06:57:43;10.60;99.90
34726;DHT22;20951;50.818;4.344;2024-02-04T07:00:13;10.50;99.90
34726;DHT22;20951;50.818;4.344;2024-02-04T07:02:40;10.60;99.90
34726;DHT22;20951;50.818;4.344;2024-02-04T07:05:06;10.50;99.90
34726;DHT22;20951;50.818;4.344;2024-02-04T07:07:32;10.60;99.90
34726;DHT22;20951;50.818;4.344;2024-02-04T07:09:59;10.60;99.90
34726;DHT22;20951;50.818;4.344;2024-02-04T07:12:25;10.60;99.90
34726;DHT22;20951;50.818;4.344;2024-02-04T07:14:50;10.50;99.90
34726;DHT22;20951;50.818;4.344;2024-02-04T07:17:16;10.50;99.90
34726;DHT22;20951;50.818;4.344;2024-02-04T07:19:42;10.50;99.90
34726;DHT22;20951;50.818;4.344;2024-02-04T07:22:08;10.50;99.90
34726;DHT22;20951;50.818;4.344;2024-02-04T07:24:42;10.50;99.90
34726;DHT22;20951;50.818;4.344;2024-02-04T07:27:08;10.60;99.90
34726;DHT22;20951;50.818;4.344;2024-02-04T07:29:34;10.60;99.90
34726;DHT22;20951;50.818;4.344;2024-02-04T07:32:00;10.60;99.90
34726;DHT22;20951;50.818;4.344;2024-02-04T07:34:26;10.50;99.90
34726;DHT22;20951;50.818;4.344;2024-02-04T07:36:52;10.60;99.90
34726;DHT22;20951;50.818;4.344;2024-02-04T07:39:18;10.60;99.90
34726;DHT22;20951;50.818;4.344;2024-02-04T07:41:44;10.60;99.90
34726;DHT22;20951;50.818;4.344;2024-02-04T07:44:10;10.60;99.90
34726;DHT22;20951;50.818;4.344;2024-02-04T07:46:35;10.50;99.90
34726;DHT22;20951;50.818;4.344;2024-02-04T07:49:04;10.60;99.90
34726;DHT22;20951;50.818;4.344;2024-02-04T07:51:30;10.60;99.90
34726;DHT22;20951;50.818;4.344;2024-02-04T07:53:57;10.70;99.90
34726;DHT22;20951;50.818;4.344;2024-02-04T07:56:23;10.60;99.90
34726;DHT22;20951;50.818;4.344;2024-02-04T07:58:51;10.60;99.90
34726;DHT22;20951;50.818;4.344;2024-02-04T08:01:19;10.60;99.90
34726;DHT22;20951;50.818;4.344;2024-02-04T08:03:45;10.60;99.90
34726;DHT22;20951;50.818;4.344;2024-02-04T08:06:12;10.70;99.90
34726;DHT22;20951;50.818;4.344;2024-02-04T08:08:38;10.70;99.90
34726;DHT22;20951;50.818;4.344;2024-02-04T08:11:04;10.70;99.90
34726;DHT22;20951;50.818;4.344;2024-02-04T08:13:30;10.60;99.90
34726;DHT22;20951;50.818;4.344;2024-02-04T08:15:55;10.60;99.90
34726;DHT22;20951;50.818;4.344;2024-02-04T08:18:21;10.60;99.90
34726;DHT22;20951;50.818;4.344;2024-02-04T08:20:47;10.60;99.90
34726;DHT22;20951;50.818;4.344;2024-02-04T08:23:13;10.60;99.90
34726;DHT22;20951;50.818;4.344;2024-02-04T08:25:39;10.70;99.90
34726;DHT22;20951;50.818;4.344;2024-02-04T08:28:05;10.60;99.90
34726;DHT22;20951;50.818;4.344;2024-02-04T08:30:31;10.60;99.90
34726;DHT22;20951;50.818;4.344;2024-02-04T08:32:57;10.60;99.90
34726;DHT22;20951;50.818;4.344;2024-02-04T08:35:23;10.50;99.90
34726;DHT22;20951;50.818;4.344;2024-02-04T08:37:49;10.60;99.90
34726;DHT22;20951;50.818;4.344;2024-02-04T08:40:15;10.60;99.90
34726;DHT22;20951;50.818;4.344;2024-02-04T08:42:41;10.70;99.90
34726;DHT22;20951;50.818;4.344;2024-02-04T08:45:08;10.60;99.90
34726;DHT22;20951;50.818;4.344;2024-02-04T08:47:33;10.60;99.90
34726;DHT22;20951;50.818;4.344;2024-02-04T08:49:59;10.70;99.90
34726;DHT22;20951;50.818;4.344;2024-02-04T08:52:25;10.60;99.90
34726;DHT22;20951;50.818;4.344;2024-02-04T08:54:51;10.60;99.90
34726;DHT22;20951;50.818;4.344;2024-02-04T08:57:17;10.60;99.90
34726;DHT22;20951;50.818;4.344;2024-02-04T08:59:42;10.60;99.90
34726;DHT22;20951;50.818;4.344;2024-02-04T09:02:08;10.70;99.90
34726;DHT22;20951;50.818;4.344;2024-02-04T09:04:34;10.70;99.90
34726;DHT22;20951;50.818;4.344;2024-02-04T09:07:06;10.80;99.90
34726;DHT22;20951;50.818;4.344;2024-02-04T09:09:33;10.60;99.90
34726;DHT22;20951;50.818;4.344;2024-02-04T09:11:59;10.70;99.90
34726;DHT22;20951;50.818;4.344;2024-02-04T09:14:25;10.70;99.90
34726;DHT22;20951;50.818;4.344;2024-02-04T09:16:50;10.90;99.90
34726;DHT22;20951;50.818;4.344;2024-02-04T09:19:16;10.80;99.90
34726;DHT22;20951;50.818;4.344;2024-02-04T09:21:42;10.80;99.90
34726;DHT22;20951;50.818;4.344;2024-02-04T09:24:09;11.00;99.90
34726;DHT22;20951;50.818;4.344;2024-02-04T09:26:35;11.10;99.90
34726;DHT22;20951;50.818;4.344;2024-02-04T09:29:00;11.10;99.90
34726;DHT22;20951;50.818;4.344;2024-02-04T09:31:27;11.20;99.90
34726;DHT22;20951;50.818;4.344;2024-02-04T09:33:54;11.20;99.90
34726;DHT22;20951;50.818;4.344;2024-02-04T09:36:19;11.00;99.90
34726;DHT22;20951;50.818;4.344;2024-02-04T09:38:47;11.00;99.90
34726;DHT22;20951;50.818;4.344;2024-02-04T09:41:13;11.10;99.90
34726;DHT22;20951;50.818;4.344;2024-02-04T09:43:40;11.00;99.90
34726;DHT22;20951;50.818;4.344;2024-02-04T09:46:06;10.90;99.90
34726;DHT22;20951;50.818;4.344;2024-02-04T09:48:33;10.90;99.90
34726;DHT22;20951;50.818;4.344;2024-02-04T09:50:59;10.80;99.90
34726;DHT22;20951;50.818;4.344;2024-02-04T09:53:35;10.90;99.90
34726;DHT22;20951;50.818;4.344;2024-02-04T09:56:04;10.90;99.90
34726;DHT22;20951;50.818;4.344;2024-02-04T09:58:34;11.00;99.90
34726;DHT22;20951;50.818;4.344;2024-02-04T10:01:00;11.00;99.90
34726;DHT22;20951;50.818;4.344;2024-02-04T10:03:28;11.00;99.90
34726;DHT22;20951;50.818;4.344;2024-02-04T10:05:54;11.10;99.90
34726;DHT22;20951;50.818;4.344;2024-02-04T10:08:20;11.00;99.90
34726;DHT22;20951;50.818;4.344;2024-02-04T10:10:47;11.00;99.90
34726;DHT22;20951;50.818;4.344;2024-02-04T10:13:17;11.10;99.90
34726;DHT22;20951;50.818;4.344;2024-02-04T10:15:43;11.20;99.90
34726;DHT22;20951;50.818;4.344;2024-02-04T10:18:09;11.20;99.90
34726;DHT22;20951;50.818;4.344;2024-02-04T10:20:35;11.10;99.90
34726;DHT22;20951;50.818;4.344;2024-02-04T10:23:01;11.10;99.90
34726;DHT22;20951;50.818;4.344;2024-02-04T10:25:27;11.20;99.90
34726;DHT22;20951;50.818;4.344;2024-02-04T10:27:53;11.30;99.90
34726;DHT22;20951;50.818;4.344;2024-02-04T10:30:20;11.30;99.90
34726;DHT22;20951;50.818;4.344;2024-02-04T10:32:47;11.30;99.90
34726;DHT22;20951;50.818;4.344;2024-02-04T10:35:15;11.40;99.90
34726;DHT22;20951;50.818;4.344;2024-02-04T10:37:47;11.30;99.90
34726;DHT22;20951;50.818;4.344;2024-02-04T10:40:13;11.20;99.90
34726;DHT22;20951;50.818;4.344;2024-02-04T10:42:39;11.30;99.90
34726;DHT22;20951;50.818;4.344;2024-02-04T10:45:08;11.50;99.90
34726;DHT22;20951;50.818;4.344;2024-02-04T10:47:38;11.40;99.90
34726;DHT22;20951;50.818;4.344;2024-02-04T10:50:05;11.40;99.90
34726;DHT22;20951;50.818;4.344;2024-02-04T10:52:40;11.40;99.90
34726;DHT22;20951;50.818;4.344;2024-02-04T10:55:11;11.30;99.90
34726;DHT22;20951;50.818;4.344;2024-02-04T10:57:41;11.30;99.90
34726;DHT22;20951;50.818;4.344;2024-02-04T11:00:08;11.30;99.90
34726;DHT22;20951;50.818;4.344;2024-02-04T11:02:35;11.40;99.90
34726;DHT22;20951;50.818;4.344;2024-02-04T11:05:03;11.30;99.90
34726;DHT22;20951;50.818;4.344;2024-02-04T11:07:32;11.40;99.90
34726;DHT22;20951;50.818;4.344;2024-02-04T11:09:59;11.50;99.90
34726;DHT22;20951;50.818;4.344;2024-02-04T11:12:25;11.60;99.90
34726;DHT22;20951;50.818;4.344;2024-02-04T11:14:55;11.50;99.90
34726;DHT22;20951;50.818;4.344;2024-02-04T11:17:42;11.60;99.90
34726;DHT22;20951;50.818;4.344;2024-02-04T11:20:28;11.60;99.90
34726;DHT22;20951;50.818;4.344;2024-02-04T11:23:26;11.50;99.90
34726;DHT22;20951;50.818;4.344;2024-02-04T11:25:56;11.50;99.90
34726;DHT22;20951;50.818;4.344;2024-02-04T11:28:23;11.50;99.90
34726;DHT22;20951;50.818;4.344;2024-02-04T11:30:51;11.50;99.90
34726;DHT22;20951;50.818;4.344;2024-02-04T11:33:21;11.70;99.90
34726;DHT22;20951;50.818;4.344;2024-02-04T11:36:05;11.50;99.90
34726;DHT22;20951;50.818;4.344;2024-02-04T11:38:36;11.50;99.90
34726;DHT22;20951;50.818;4.344;2024-02-04T11:41:05;11.50;99.90
34726;DHT22;20951;50.818;4.344;2024-02-04T11:43:36;11.50;99.90
34726;DHT22;20951;50.818;4.344;2024-02-04T11:46:05;11.40;99.90
34726;DHT22;20951;50.818;4.344;2024-02-04T11:48:33;11.50;99.90
34726;DHT22;20951;50.818;4.344;2024-02-04T11:50:59;11.50;99.90
34726;DHT22;20951;50.818;4.344;2024-02-04T11:53:29;11.50;99.90
34726;DHT22;20951;50.818;4.344;2024-02-04T11:56:01;11.50;99.90
34726;DHT22;20951;50.818;4.344;2024-02-04T11:58:29;11.50;99.90
34726;DHT22;20951;50.818;4.344;2024-02-04T12:00:56;11.60;99.90
34726;DHT22;20951;50.818;4.344;2024-02-04T12:03:32;11.70;99.90
34726;DHT22;20951;50.818;4.344;2024-02-04T12:05:59;11.60;99.90
34726;DHT22;20951;50.818;4.344;2024-02-04T12:08:26;11.60;99.90
34726;DHT22;20951;50.818;4.344;2024-02-04T12:10:52;11.50;99.90
34726;DHT22;20951;50.818;4.344;2024-02-04T12:13:19;11.60;99.90
34726;DHT22;20951;50.818;4.344;2024-02-04T12:15:47;11.70;99.90
34726;DHT22;20951;50.818;4.344;2024-02-04T12:18:14;11.60;99.90
34726;DHT22;20951;50.818;4.344;2024-02-04T12:20:41;11.60;99.90
34726;DHT22;20951;50.818;4.344;2024-02-04T12:23:07;11.60;99.90
34726;DHT22;20951;50.818;4.344;2024-02-04T12:25:34;11.60;99.90
34726;DHT22;20951;50.818;4.344;2024-02-04T12:28:01;11.50;99.90
34726;DHT22;20951;50.818;4.344;2024-02-04T12:30:29;11.50;99.90
34726;DHT22;20951;50.818;4.344;2024-02-04T12:32:58;11.30;99.90
34726;DHT22;20951;50.818;4.344;2024-02-04T12:35:25;11.30;99.90
34726;DHT22;20951;50.818;4.344;2024-02-04T12:37:55;11.40;99.90
34726;DHT22;20951;50.818;4.344;2024-02-04T12:40:29;11.30;99.90
34726;DHT22;20951;50.818;4.344;2024-02-04T12:42:59;11.40;99.90
34726;DHT22;20951;50.818;4.344;2024-02-04T12:45:27;11.30;99.90
34726;DHT22;20951;50.818;4.344;2024-02-04T12:47:54;11.20;99.90
34726;DHT22;20951;50.818;4.344;2024-02-04T12:50:21;11.20;99.90
34726;DHT22;20951;50.818;4.344;2024-02-04T12:52:49;11.20;99.90
34726;DHT22;20951;50.818;4.344;2024-02-04T12:55:24;11.10;99.90
34726;DHT22;20951;50.818;4.344;2024-02-04T12:58:11;11.00;99.90
34726;DHT22;20951;50.818;4.344;2024-02-04T13:00:43;11.10;99.90
34726;DHT22;20951;50.818;4.344;2024-02-04T13:03:10;11.00;99.90
34726;DHT22;20951;50.818;4.344;2024-02-04T13:05:36;11.00;99.90
34726;DHT22;20951;50.818;4.344;2024-02-04T13:08:03;11.10;99.90
34726;DHT22;20951;50.818;4.344;2024-02-04T13:10:35;10.90;99.90
34726;DHT22;20951;50.818;4.344;2024-02-04T13:13:05;11.00;99.90
34726;DHT22;20951;50.818;4.344;2024-02-04T13:15:43;11.00;99.90
34726;DHT22;20951;50.818;4.344;2024-02-04T13:18:09;11.00;99.90
34726;DHT22;20951;50.818;4.344;2024-02-04T13:20:37;11.00;99.90
34726;DHT22;20951;50.818;4.344;2024-02-04T13:23:03;11.00;99.90
34726;DHT22;20951;50.818;4.344;2024-02-04T13:25:32;11.10;99.90
34726;DHT22;20951;50.818;4.344;2024-02-04T13:27:58;11.00;99.90
34726;DHT22;20951;50.818;4.344;2024-02-04T13:30:24;11.00;99.90
34726;DHT22;20951;50.818;4.344;2024-02-04T13:32:51;11.10;99.90
34726;DHT22;20951;50.818;4.344;2024-02-04T13:35:17;11.10;99.90
34726;DHT22;20951;50.818;4.344;2024-02-04T13:37:47;11.00;99.90
34726;DHT22;20951;50.818;4.344;2024-02-04T13:40:14;10.90;99.90
34726;DHT22;20951;50.818;4.344;2024-02-04T13:42:41;10.90;99.90
34726;DHT22;20951;50.818;4.344;2024-02-04T13:45:07;11.00;99.90
34726;DHT22;20951;50.818;4.344;2024-02-04T13:47:34;10.90;99.90
34726;DHT22;20951;50.818;4.344;2024-02-04T13:50:02;11.00;99.90
34726;DHT22;20951;50.818;4.344;2024-02-04T13:52:29;11.00;99.90
34726;DHT22;20951;50.818;4.344;2024-02-04T13:54:54;11.00;99.90
34726;DHT22;20951;50.818;4.344;2024-02-04T13:57:20;11.10;99.90
34726;DHT22;20951;50.818;4.344;2024-02-04T13:59:46;11.10;99.90
34726;DHT22;20951;50.818;4.344;2024-02-04T14:02:12;10.90;99.90
34726;DHT22;20951;50.818;4.344;2024-02-04T14:04:41;10.90;99.90
34726;DHT22;20951;50.818;4.344;2024-02-04T14:07:09;10.90;99.90
34726;DHT22;20951;50.818;4.344;2024-02-04T14:09:36;11.00;99.90
34726;DHT22;20951;50.818;4.344;2024-02-04T14:12:05;10.90;99.90
34726;DHT22;20951;50.818;4.344;2024-02-04T14:14:31;10.90;99.90
34726;DHT22;20951;50.818;4.344;2024-02-04T14:16:57;11.00;99.90
34726;DHT22;20951;50.818;4.344;2024-02-04T14:19:23;11.00;99.90
34726;DHT22;20951;50.818;4.344;2024-02-04T14:21:49;10.80;99.90
34726;DHT22;20951;50.818;4.344;2024-02-04T14:24:15;10.80;99.90
34726;DHT22;20951;50.818;4.344;2024-02-04T14:26:41;10.90;99.90
34726;DHT22;20951;50.818;4.344;2024-02-04T14:29:08;11.00;99.90
34726;DHT22;20951;50.818;4.344;2024-02-04T14:31:34;10.90;99.90
34726;DHT22;20951;50.818;4.344;2024-02-04T14:34:03;10.90;99.90
34726;DHT22;20951;50.818;4.344;2024-02-04T14:36:31;10.90;99.90
34726;DHT22;20951;50.818;4.344;2024-02-04T14:38:57;10.90;99.90
34726;DHT22;20951;50.818;4.344;2024-02-04T14:41:28;10.80;99.90
34726;DHT22;20951;50.818;4.344;2024-02-04T14:43:54;10.80;99.90
34726;DHT22;20951;50.818;4.344;2024-02-04T14:46:19;10.80;99.90
34726;DHT22;20951;50.818;4.344;2024-02-04T14:48:45;10.90;99.90
34726;DHT22;20951;50.818;4.344;2024-02-04T14:51:11;10.90;99.90
34726;DHT22;20951;50.818;4.344;2024-02-04T14:53:37;10.90;99.90
34726;DHT22;20951;50.818;4.344;2024-02-04T14:56:03;10.80;99.90
34726;DHT22;20951;50.818;4.344;2024-02-04T14:58:31;10.90;99.90
34726;DHT22;20951;50.818;4.344;2024-02-04T15:00:57;10.90;99.90
34726;DHT22;20951;50.818;4.344;2024-02-04T15:03:23;10.90;99.90
34726;DHT22;20951;50.818;4.344;2024-02-04T15:05:49;10.80;99.90
34726;DHT22;20951;50.818;4.344;2024-02-04T15:08:15;10.90;99.90
34726;DHT22;20951;50.818;4.344;2024-02-04T15:10:42;10.90;99.90
34726;DHT22;20951;50.818;4.344;2024-02-04T15:13:08;10.80;99.90
34726;DHT22;20951;50.818;4.344;2024-02-04T15:15:35;10.90;99.90
34726;DHT22;20951;50.818;4.344;2024-02-04T15:18:01;10.90;99.90
34726;DHT22;20951;50.818;4.344;2024-02-04T15:20:27;10.90;99.90
34726;DHT22;20951;50.818;4.344;2024-02-04T15:22:54;10.80;99.90
34726;DHT22;20951;50.818;4.344;2024-02-04T15:25:22;10.90;99.90
34726;DHT22;20951;50.818;4.344;2024-02-04T15:27:52;10.90;99.90
34726;DHT22;20951;50.818;4.344;2024-02-04T15:30:18;11.00;99.90
34726;DHT22;20951;50.818;4.344;2024-02-04T15:32:44;10.90;99.90
34726;DHT22;20951;50.818;4.344;2024-02-04T15:35:12;10.90;99.90
34726;DHT22;20951;50.818;4.344;2024-02-04T15:37:38;10.90;99.90
34726;DHT22;20951;50.818;4.344;2024-02-04T15:40:05;10.90;99.90
34726;DHT22;20951;50.818;4.344;2024-02-04T15:42:32;10.90;99.90